createdAt,value
2018-08-30T00:01:33.291Z,3.33
2018-08-30T00:04:00.328Z,2.10
2018-08-30T00:06:27.331Z,3.63
2018-08-30T00:08:54.322Z,3.63
2018-08-30T00:11:21.359Z,4.40
2018-08-30T00:13:48.351Z,3.87
2018-08-30T00:16:15.342Z,2.53
2018-08-30T00:18:42.395Z,3.73
2018-08-30T00:21:09.388Z,2.87
2018-08-30T00:23:36.388Z,3.00
2018-08-30T00:26:03.429Z,4.87
2018-08-30T00:28:30.424Z,6.90
2018-08-30T00:30:57.504Z,3.57
2018-08-30T00:33:24.521Z,2.80
2018-08-30T00:35:51.525Z,4.60
2018-08-30T00:38:18.521Z,5.23
2018-08-30T00:43:24.029Z,2.75
2018-08-30T00:45:51.875Z,3.57
2018-08-30T00:48:18.871Z,4.37
2018-08-30T00:50:45.867Z,4.97
2018-08-30T00:53:12.913Z,2.67
2018-08-30T00:55:39.902Z,4.70
2018-08-30T00:58:06.900Z,2.97
2018-08-30T01:00:33.936Z,3.03
2018-08-30T01:03:00.921Z,7.60
2018-08-30T01:05:27.921Z,2.33
2018-08-30T01:07:54.953Z,4.87
2018-08-30T01:10:21.941Z,4.67
2018-08-30T01:12:48.929Z,4.50
2018-08-30T01:15:16.043Z,2.40
2018-08-30T01:17:43.031Z,3.67
2018-08-30T01:20:10.873Z,3.97
2018-08-30T01:22:37.925Z,2.23
2018-08-30T01:25:05.739Z,2.73
2018-08-30T01:27:32.734Z,4.07
2018-08-30T01:29:59.853Z,3.70
2018-08-30T01:32:26.845Z,3.57
2018-08-30T01:34:53.829Z,4.33
2018-08-30T01:37:20.865Z,2.87
2018-08-30T01:39:47.858Z,4.87
2018-08-30T01:42:14.855Z,2.27
2018-08-30T01:44:41.880Z,2.83
2018-08-30T01:47:08.872Z,4.83
2018-08-30T01:49:35.869Z,4.90
2018-08-30T01:52:02.910Z,3.83
2018-08-30T01:54:29.907Z,3.90
2018-08-30T01:56:57.806Z,3.93
2018-08-30T02:02:03.383Z,3.60
2018-08-30T02:04:30.402Z,4.13
2018-08-30T02:06:57.497Z,4.07
2018-08-30T02:09:25.357Z,2.30
2018-08-30T02:11:52.460Z,4.60
2018-08-30T02:14:19.452Z,3.23
2018-08-30T02:16:46.448Z,3.80
2018-08-30T02:19:14.257Z,2.40
2018-08-30T02:21:41.264Z,3.97
2018-08-30T02:24:08.264Z,2.87
2018-08-30T02:26:35.303Z,2.27
2018-08-30T02:29:02.293Z,3.03
2018-08-30T02:31:29.287Z,3.93
2018-08-30T02:33:56.313Z,3.90
2018-08-30T02:36:23.297Z,3.33
2018-08-30T02:38:50.287Z,4.90
2018-08-30T02:41:17.317Z,3.60
2018-08-30T02:43:44.315Z,2.73
2018-08-30T02:46:11.307Z,4.63
2018-08-30T02:48:38.703Z,4.63
2018-08-30T02:51:05.702Z,4.97
2018-08-30T02:53:32.705Z,3.37
2018-08-30T02:55:59.738Z,5.20
2018-08-30T02:58:26.728Z,4.33
2018-08-30T03:00:53.717Z,2.40
2018-08-30T03:03:20.738Z,3.37
2018-08-30T03:05:47.828Z,4.03
2018-08-30T03:08:14.820Z,4.07
2018-08-30T03:10:41.866Z,3.23
2018-08-30T03:13:08.858Z,4.47
2018-08-30T03:18:14.376Z,4.00
2018-08-30T03:20:41.454Z,4.77
2018-08-30T03:23:08.445Z,4.67
2018-08-30T03:25:35.466Z,5.17
2018-08-30T03:28:02.465Z,4.17
2018-08-30T03:30:29.476Z,3.20
2018-08-30T03:32:56.504Z,3.33
2018-08-30T03:35:23.505Z,4.27
2018-08-30T03:37:50.586Z,4.43
2018-08-30T03:40:17.632Z,3.80
2018-08-30T03:42:44.624Z,2.27
2018-08-30T03:45:11.609Z,3.50
2018-08-30T03:47:38.640Z,4.97
2018-08-30T03:50:05.736Z,4.00
2018-08-30T03:52:32.758Z,3.03
2018-08-30T03:54:59.799Z,3.43
2018-08-30T03:57:26.776Z,3.57
2018-08-30T03:59:54.547Z,3.23
2018-08-30T04:02:22.476Z,4.47
2018-08-30T04:04:49.462Z,4.73
2018-08-30T04:07:16.465Z,4.73
2018-08-30T04:09:43.493Z,3.60
2018-08-30T04:12:10.473Z,4.80
2018-08-30T04:14:37.464Z,3.40
2018-08-30T04:17:04.500Z,3.53
2018-08-30T04:19:31.498Z,6.40
2018-08-30T04:21:58.576Z,5.10
2018-08-30T04:24:25.519Z,4.27
2018-08-30T04:26:52.515Z,4.03
2018-08-30T04:29:19.500Z,6.37
2018-08-30T04:31:46.530Z,5.40
2018-08-30T04:34:13.527Z,3.33
2018-08-30T04:36:40.595Z,3.67
2018-08-30T04:39:07.626Z,3.10
2018-08-30T04:44:13.151Z,3.42
2018-08-30T04:46:40.188Z,2.27
2018-08-30T04:49:07.147Z,2.10
2018-08-30T04:51:34.176Z,3.77
2018-08-30T04:54:01.171Z,3.60
2018-08-30T04:56:28.172Z,2.33
2018-08-30T04:58:55.197Z,4.87
2018-08-30T05:01:22.185Z,4.53
2018-08-30T05:03:49.210Z,5.47
2018-08-30T05:06:16.262Z,4.67
2018-08-30T05:08:43.253Z,5.37
2018-08-30T05:11:10.257Z,4.57
2018-08-30T05:13:37.308Z,4.23
2018-08-30T05:16:04.293Z,4.43
2018-08-30T05:18:31.311Z,4.47
2018-08-30T05:20:58.349Z,3.57
2018-08-30T05:23:25.351Z,4.47
2018-08-30T05:25:52.420Z,6.07
2018-08-30T05:28:19.449Z,3.93
2018-08-30T05:30:46.438Z,5.83
2018-08-30T05:33:13.447Z,6.87
2018-08-30T05:38:23.089Z,6.22
2018-08-30T05:40:50.132Z,5.13
2018-08-30T05:43:17.138Z,10.33
2018-08-30T05:45:44.138Z,11.23
2018-08-30T05:48:11.208Z,6.10
2018-08-30T05:50:38.181Z,4.00
2018-08-30T05:53:05.179Z,5.80
2018-08-30T05:55:32.234Z,5.93
2018-08-30T05:57:59.243Z,8.10
2018-08-30T06:00:26.316Z,6.03
2018-08-30T06:02:53.349Z,6.43
2018-08-30T06:05:20.346Z,6.80
2018-08-30T06:07:47.337Z,8.73
2018-08-30T06:10:14.362Z,6.90
2018-08-30T06:12:41.380Z,6.07
2018-08-30T06:15:08.395Z,6.67
2018-08-30T06:17:35.436Z,5.80
2018-08-30T06:20:02.458Z,11.33
2018-08-30T06:22:29.458Z,9.47
2018-08-30T06:24:56.496Z,6.13
2018-08-30T06:27:23.506Z,7.90
2018-08-30T06:29:51.374Z,6.77
2018-08-30T06:32:19.316Z,5.33
2018-08-30T06:34:46.335Z,8.80
2018-08-30T06:37:15.180Z,5.23
2018-08-30T06:39:42.695Z,4.97
2018-08-30T06:42:09.705Z,8.70
2018-08-30T06:44:36.706Z,8.23
2018-08-30T06:47:03.753Z,6.67
2018-08-30T06:49:30.760Z,6.77
2018-08-30T06:51:57.792Z,9.10
2018-08-30T06:54:25.798Z,6.17
2018-08-30T06:56:54.668Z,6.40
2018-08-30T07:02:01.140Z,5.72
2018-08-30T07:04:28.139Z,4.30
2018-08-30T07:06:56.108Z,4.73
2018-08-30T07:09:23.196Z,2.47
2018-08-30T07:11:50.283Z,2.43
2018-08-30T07:14:17.286Z,4.47
2018-08-30T07:16:46.168Z,4.20
2018-08-30T07:19:13.094Z,3.23
2018-08-30T07:21:40.097Z,2.40
2018-08-30T07:24:07.174Z,2.60
2018-08-30T07:26:34.701Z,1.63
2018-08-30T07:29:01.728Z,2.17
2018-08-30T07:31:28.805Z,1.87
2018-08-30T07:33:55.794Z,3.40
2018-08-30T07:36:22.804Z,5.57
2018-08-30T07:38:49.843Z,2.93
2018-08-30T07:41:16.883Z,3.67
2018-08-30T07:43:43.878Z,4.77
2018-08-30T07:46:10.912Z,8.03
2018-08-30T07:48:38.146Z,6.03
2018-08-30T07:51:05.158Z,7.53
2018-08-30T07:53:32.115Z,6.50
2018-08-30T07:55:59.110Z,5.77
2018-08-30T08:01:04.948Z,7.80
2018-08-30T08:03:32.808Z,4.80
2018-08-30T08:05:59.843Z,4.47
2018-08-30T08:08:26.845Z,6.60
2018-08-30T08:10:53.858Z,5.03
2018-08-30T08:13:20.860Z,7.00
2018-08-30T08:15:47.885Z,5.13
2018-08-30T08:18:14.960Z,3.83
2018-08-30T08:20:41.996Z,5.20
2018-08-30T08:23:08.997Z,3.97
2018-08-30T08:25:35.997Z,5.10
2018-08-30T08:28:02.997Z,5.23
2018-08-30T08:30:30.039Z,3.77
2018-08-30T08:32:57.040Z,4.40
2018-08-30T08:35:24.988Z,7.20
2018-08-30T08:37:52.023Z,7.23
2018-08-30T08:40:19.049Z,5.10
2018-08-30T08:42:46.132Z,9.83
2018-08-30T08:45:13.151Z,6.20
2018-08-30T08:47:40.151Z,5.20
2018-08-30T08:50:07.149Z,7.80
2018-08-30T08:52:34.189Z,6.77
2018-08-30T08:55:01.190Z,7.50
2018-08-30T08:57:28.186Z,6.63
2018-08-30T08:59:55.234Z,9.53
2018-08-30T09:02:22.241Z,6.83
2018-08-30T09:04:49.244Z,5.60
2018-08-30T09:07:16.384Z,5.37
2018-08-30T09:09:43.286Z,5.00
2018-08-30T09:12:10.285Z,7.03
2018-08-30T09:17:15.777Z,7.25
2018-08-30T09:19:42.821Z,6.00
2018-08-30T09:22:09.820Z,6.43
2018-08-30T09:24:36.832Z,9.70
2018-08-30T09:27:04.873Z,5.93
2018-08-30T09:29:31.845Z,5.93
2018-08-30T09:31:58.916Z,5.57
2018-08-30T09:34:26.911Z,4.93
2018-08-30T09:36:53.907Z,7.93
2018-08-30T09:39:20.998Z,6.27
2018-08-30T09:41:48.034Z,7.10
2018-08-30T09:44:15.038Z,8.17
2018-08-30T09:46:42.124Z,8.33
2018-08-30T09:49:09.934Z,6.80
2018-08-30T09:51:36.940Z,5.97
2018-08-30T09:54:03.946Z,4.90
2018-08-30T09:59:13.390Z,9.35
2018-08-30T10:01:40.418Z,7.60
2018-08-30T10:04:07.411Z,8.93
2018-08-30T10:06:35.315Z,9.10
2018-08-30T10:09:02.359Z,5.53
2018-08-30T10:11:29.388Z,4.80
2018-08-30T10:13:57.349Z,5.37
2018-08-30T10:16:24.391Z,7.20
2018-08-30T10:18:52.484Z,7.50
2018-08-30T10:21:19.527Z,8.33
2018-08-30T10:23:46.595Z,3.70
2018-08-30T10:26:13.605Z,4.27
2018-08-30T10:28:40.606Z,5.13
2018-08-30T10:31:07.724Z,4.53
2018-08-30T10:33:34.730Z,4.50
2018-08-30T10:36:01.748Z,4.13
2018-08-30T10:38:28.880Z,4.60
2018-08-30T10:40:55.881Z,2.70
2018-08-30T10:43:22.885Z,3.43
2018-08-30T10:45:50.009Z,2.37
2018-08-30T10:48:17.036Z,1.77
2018-08-30T10:50:44.051Z,4.93
2018-08-30T10:53:12.087Z,2.03
2018-08-30T10:55:39.058Z,2.20
2018-08-30T10:58:06.090Z,2.97
2018-08-30T11:03:12.552Z,2.08
2018-08-30T11:05:39.600Z,1.23
2018-08-30T11:08:07.458Z,2.30
2018-08-30T11:10:34.458Z,1.33
2018-08-30T11:13:02.624Z,1.33
2018-08-30T11:15:29.496Z,1.60
2018-08-30T11:17:57.451Z,2.07
2018-08-30T11:20:25.468Z,1.73
2018-08-30T11:22:53.080Z,2.10
2018-08-30T11:25:20.091Z,1.23
2018-08-30T11:27:47.120Z,2.13
2018-08-30T11:30:14.131Z,4.07
2018-08-30T11:32:41.128Z,1.33
2018-08-30T11:35:08.162Z,4.13
2018-08-30T11:37:35.193Z,1.00
2018-08-30T11:40:02.167Z,1.00
2018-08-30T11:42:30.781Z,3.57
2018-08-30T11:44:56.336Z,1.70
2018-08-30T11:47:23.424Z,1.57
2018-08-30T11:49:50.455Z,3.67
2018-08-30T11:52:17.484Z,1.57
2018-08-30T11:54:44.478Z,1.17
2018-08-30T11:57:11.520Z,1.00
2018-08-30T11:59:38.544Z,2.23
2018-08-30T12:02:05.545Z,2.00
2018-08-30T12:04:32.597Z,2.53
2018-08-30T12:09:38.111Z,1.20
2018-08-30T12:12:05.118Z,0.53
2018-08-30T12:14:32.207Z,1.73
2018-08-30T12:16:59.246Z,0.83
2018-08-30T12:19:26.256Z,0.60
2018-08-30T12:21:54.068Z,1.63
2018-08-30T12:24:21.837Z,0.60
2018-08-30T12:26:48.878Z,0.60
2018-08-30T12:29:16.872Z,2.10
2018-08-30T12:31:43.951Z,1.13
2018-08-30T12:34:10.992Z,0.90
2018-08-30T12:36:37.939Z,1.93
2018-08-30T12:39:05.071Z,0.70
2018-08-30T12:41:32.017Z,0.97
2018-08-30T12:43:59.180Z,0.63
2018-08-30T12:49:04.667Z,0.60
2018-08-30T12:51:31.973Z,1.57
2018-08-30T12:53:59.220Z,1.77
2018-08-30T12:56:26.299Z,0.83
2018-08-30T13:01:31.374Z,1.75
2018-08-30T13:03:58.585Z,2.23
2018-08-30T13:06:25.539Z,4.63
2018-08-30T13:08:52.644Z,1.83
2018-08-30T13:11:20.698Z,1.00
2018-08-30T13:13:47.627Z,1.20
2018-08-30T13:16:15.578Z,0.87
2018-08-30T13:18:42.644Z,1.43
2018-08-30T13:21:10.059Z,1.80
2018-08-30T13:23:37.249Z,1.80
2018-08-30T13:26:04.465Z,1.87
2018-08-30T13:28:31.205Z,3.20
2018-08-30T13:30:58.347Z,0.80
2018-08-30T13:33:25.483Z,0.90
2018-08-30T13:35:52.493Z,1.00
2018-08-30T13:38:19.503Z,1.97
2018-08-30T13:40:46.563Z,1.33
2018-08-30T13:43:13.665Z,2.30
2018-08-30T13:45:40.432Z,1.23
2018-08-30T13:48:07.797Z,1.13
2018-08-30T13:50:34.734Z,1.50
2018-08-30T13:53:01.597Z,1.67
2018-08-30T13:55:29.539Z,1.67
2018-08-30T13:57:56.941Z,1.97
2018-08-30T14:00:23.871Z,0.80
2018-08-30T14:02:50.604Z,1.40
2018-08-30T14:05:17.645Z,4.07
2018-08-30T14:07:44.721Z,2.13
2018-08-30T14:10:12.716Z,1.10
2018-08-30T14:12:39.604Z,3.20
2018-08-30T14:17:46.896Z,0.80
2018-08-30T14:20:14.916Z,1.03
2018-08-30T14:22:42.023Z,2.50
2018-08-30T14:25:09.096Z,1.67
2018-08-30T14:27:37.046Z,1.13
2018-08-30T14:30:04.059Z,1.10
2018-08-30T14:32:31.959Z,1.57
2018-08-30T14:34:59.000Z,1.63
2018-08-30T14:37:26.065Z,1.13
2018-08-30T14:39:53.637Z,0.97
2018-08-30T14:42:21.701Z,4.50
2018-08-30T14:44:48.698Z,1.00
2018-08-30T14:47:15.856Z,1.10
2018-08-30T14:49:42.752Z,1.47
2018-08-30T14:52:09.762Z,1.20
2018-08-30T14:54:36.862Z,1.30
2018-08-30T14:57:03.811Z,1.37
2018-08-30T14:59:30.989Z,1.83
2018-08-30T15:01:57.916Z,1.50
2018-08-30T15:04:24.920Z,2.63
2018-08-30T15:06:51.932Z,2.07
2018-08-30T15:09:18.988Z,2.93
2018-08-30T15:11:46.010Z,1.90
2018-08-30T15:14:12.997Z,3.10
2018-08-30T15:16:40.064Z,2.47
2018-08-30T15:19:07.076Z,1.97
2018-08-30T15:21:34.307Z,1.20
2018-08-30T15:24:01.342Z,1.53
2018-08-30T15:26:28.358Z,2.10
2018-08-30T15:28:55.375Z,1.67
2018-08-30T15:31:22.645Z,2.73
2018-08-30T15:33:49.600Z,1.50
2018-08-30T15:38:55.030Z,2.00
2018-08-30T15:41:22.185Z,1.60
2018-08-30T15:43:49.120Z,3.53
2018-08-30T15:46:16.151Z,3.03
2018-08-30T15:48:43.456Z,2.03
2018-08-30T15:51:10.944Z,1.67
2018-08-30T15:53:37.994Z,3.23
2018-08-30T15:56:04.993Z,3.03
2018-08-30T15:58:32.004Z,1.60
2018-08-30T16:00:59.032Z,1.70
2018-08-30T16:03:26.035Z,2.50
2018-08-30T16:05:53.041Z,1.77
2018-08-30T16:08:20.185Z,2.17
2018-08-30T16:10:47.201Z,1.80
2018-08-30T16:13:14.324Z,6.30
2018-08-30T16:15:42.091Z,1.80
2018-08-30T16:18:09.102Z,1.77
2018-08-30T16:20:36.184Z,4.63
2018-08-30T16:23:03.270Z,1.87
2018-08-30T16:25:30.267Z,3.73
2018-08-30T16:27:57.287Z,3.67
2018-08-30T16:30:24.931Z,1.83
2018-08-30T16:32:51.894Z,4.77
2018-08-30T16:35:19.026Z,1.90
2018-08-30T16:37:46.007Z,2.83
2018-08-30T16:40:13.021Z,2.30
2018-08-30T16:42:40.045Z,3.17
2018-08-30T16:45:07.078Z,1.63
2018-08-30T16:47:34.097Z,1.67
2018-08-30T16:50:01.980Z,3.07
2018-08-30T16:52:29.040Z,2.43
2018-08-30T16:54:56.856Z,2.73
2018-08-30T17:00:02.426Z,4.25
2018-08-30T17:02:29.440Z,3.90
2018-08-30T17:04:56.451Z,5.43
2018-08-30T17:07:23.482Z,3.80
2018-08-30T17:09:51.494Z,3.50
2018-08-30T17:12:18.507Z,2.43
2018-08-30T17:14:46.012Z,5.00
2018-08-30T17:17:14.019Z,4.03
2018-08-30T17:19:41.035Z,2.70
2018-08-30T17:22:08.102Z,3.53
2018-08-30T17:24:35.144Z,4.33
2018-08-30T17:27:03.038Z,3.53
2018-08-30T17:32:09.155Z,5.12
2018-08-30T17:34:36.202Z,3.20
2018-08-30T17:39:41.874Z,6.82
2018-08-30T17:42:09.839Z,4.13
2018-08-30T17:44:37.619Z,4.53
2018-08-30T17:47:04.650Z,5.70
2018-08-30T17:49:31.698Z,6.10
2018-08-30T17:51:58.801Z,6.97
2018-08-30T17:54:25.844Z,6.13
2018-08-30T17:56:52.872Z,6.77
2018-08-30T17:59:19.890Z,6.13
2018-08-30T18:01:46.929Z,11.53
2018-08-30T18:04:13.974Z,7.70
2018-08-30T18:06:40.978Z,6.23
2018-08-30T18:09:08.093Z,6.90
2018-08-30T18:11:36.885Z,6.27
2018-08-30T18:14:02.961Z,6.83
2018-08-30T18:16:30.037Z,6.57
2018-08-30T18:18:58.332Z,6.97
2018-08-30T18:21:25.352Z,8.03
2018-08-30T18:23:52.406Z,7.63
2018-08-30T18:26:20.435Z,11.47
2018-08-30T18:28:47.846Z,11.00
2018-08-30T18:31:14.916Z,6.30
2018-08-30T18:33:41.936Z,7.23
2018-08-30T18:36:09.889Z,6.20
2018-08-30T18:38:36.923Z,7.70
2018-08-30T18:41:03.956Z,8.87
2018-08-30T18:43:31.089Z,7.03
2018-08-30T18:45:58.269Z,6.67
2018-08-30T18:48:25.292Z,8.73
2018-08-30T18:50:52.287Z,7.23
2018-08-30T18:53:19.347Z,11.20
2018-08-30T18:58:25.065Z,9.05
2018-08-30T19:00:52.068Z,7.23
2018-08-30T19:03:19.068Z,7.47
2018-08-30T19:05:46.138Z,7.63
2018-08-30T19:08:13.133Z,10.03
2018-08-30T19:10:40.752Z,9.80
2018-08-30T19:13:08.871Z,10.57
2018-08-30T19:15:36.003Z,7.97
2018-08-30T19:18:03.049Z,10.70
2018-08-30T19:20:30.142Z,7.63
2018-08-30T19:22:57.132Z,8.03
2018-08-30T19:25:24.840Z,8.93
2018-08-30T19:27:51.961Z,7.80
2018-08-30T19:30:19.759Z,8.57
2018-08-30T19:32:46.819Z,10.97
2018-08-30T19:35:13.866Z,8.00
2018-08-30T19:37:40.939Z,6.90
2018-08-30T19:40:07.945Z,7.33
2018-08-30T19:42:35.047Z,8.03
2018-08-30T19:45:02.856Z,6.83
2018-08-30T19:47:29.874Z,7.90
2018-08-30T19:49:57.780Z,6.57
2018-08-30T19:52:24.815Z,8.40
2018-08-30T19:54:51.841Z,11.73
2018-08-30T19:57:19.024Z,8.23
2018-08-30T19:59:46.068Z,8.50
2018-08-30T20:02:13.124Z,9.07
2018-08-30T20:04:40.147Z,10.20
2018-08-30T20:07:07.186Z,9.57
2018-08-30T20:09:34.200Z,9.23
2018-08-30T20:12:01.361Z,9.50
2018-08-30T20:17:09.233Z,10.65
2018-08-30T20:19:35.650Z,11.70
2018-08-30T20:22:02.933Z,10.23
2018-08-30T20:24:30.040Z,11.20
2018-08-30T20:26:57.030Z,7.63
2018-08-30T20:29:24.117Z,7.40
2018-08-30T20:34:31.712Z,12.25
2018-08-30T20:36:58.689Z,9.67
2018-08-30T20:39:25.703Z,10.10
2018-08-30T20:41:52.780Z,11.57
2018-08-30T20:44:19.787Z,10.70
2018-08-30T20:46:46.932Z,11.93
2018-08-30T20:49:14.042Z,11.47
2018-08-30T20:51:41.376Z,10.97
2018-08-30T20:54:08.450Z,10.50
2018-08-30T20:56:35.532Z,11.57
2018-08-30T20:59:03.571Z,10.90
2018-08-30T21:01:30.635Z,12.47
2018-08-30T21:03:57.646Z,13.10
2018-08-30T21:06:24.692Z,10.40
2018-08-30T21:08:52.003Z,14.17
2018-08-30T21:11:18.939Z,10.70
2018-08-30T21:13:46.968Z,13.30
2018-08-30T21:16:13.992Z,12.90
2018-08-30T21:18:41.021Z,10.17
2018-08-30T21:23:46.275Z,12.80
2018-08-30T21:26:14.210Z,9.83
2018-08-30T21:28:41.213Z,13.27
2018-08-30T21:31:08.234Z,14.03
2018-08-30T21:33:35.284Z,15.00
2018-08-30T21:36:02.296Z,14.23
2018-08-30T21:38:29.324Z,13.00
2018-08-30T21:40:56.457Z,12.63
2018-08-30T21:43:23.464Z,12.40
2018-08-30T21:45:50.478Z,11.20
2018-08-30T21:48:17.551Z,13.03
2018-08-30T21:50:44.759Z,14.60
2018-08-30T21:53:11.805Z,11.83
2018-08-30T21:55:38.840Z,11.30
2018-08-30T21:58:05.895Z,11.83
2018-08-30T22:00:32.981Z,14.53
2018-08-30T22:03:00.021Z,12.13
2018-08-30T22:05:27.018Z,12.80
2018-08-30T22:07:54.012Z,12.50
2018-08-30T22:10:21.056Z,10.90
2018-08-30T22:12:48.893Z,12.10
2018-08-30T22:15:15.894Z,12.30
2018-08-30T22:17:45.996Z,15.07
2018-08-30T22:20:12.519Z,11.27
2018-08-30T22:22:40.326Z,12.23
2018-08-30T22:25:07.373Z,19.73
2018-08-30T22:27:34.405Z,12.97
2018-08-30T22:30:01.411Z,11.37
2018-08-30T22:32:28.471Z,11.50
2018-08-30T22:34:55.486Z,11.20
2018-08-30T22:40:01.024Z,13.05
2018-08-30T22:42:28.017Z,12.87
2018-08-30T22:44:55.014Z,11.80
2018-08-30T22:47:22.032Z,12.13
2018-08-30T22:49:49.039Z,12.90
2018-08-30T22:52:16.037Z,12.77
2018-08-30T22:54:43.066Z,13.57
2018-08-30T22:57:10.060Z,12.30
2018-08-30T22:59:37.138Z,11.93
2018-08-30T23:02:04.170Z,12.90
2018-08-30T23:04:31.173Z,14.20
2018-08-30T23:06:58.636Z,14.87
2018-08-30T23:09:25.666Z,14.17
2018-08-30T23:11:52.673Z,13.60
2018-08-30T23:14:19.673Z,12.93
2018-08-30T23:16:46.714Z,13.23
2018-08-30T23:19:14.664Z,16.13
2018-08-30T23:21:41.668Z,15.50
2018-08-30T23:24:08.775Z,16.27
2018-08-30T23:26:35.722Z,13.53
2018-08-30T23:29:03.666Z,13.17
2018-08-30T23:31:31.653Z,12.67
2018-08-30T23:33:58.654Z,11.47
2018-08-30T23:36:25.651Z,16.10
2018-08-30T23:38:52.686Z,12.97
2018-08-30T23:41:19.695Z,14.40
2018-08-30T23:43:46.707Z,14.20
2018-08-30T23:46:14.665Z,13.83
2018-08-30T23:48:41.677Z,13.47
2018-08-30T23:51:09.516Z,17.23
2018-08-30T23:53:36.568Z,16.43
